createdAt,value
2018-12-25T00:02:05.405Z,2.83
2018-12-25T00:04:33.878Z,2.86
2018-12-25T00:07:02.374Z,2.88
2018-12-25T00:09:30.863Z,3.07
2018-12-25T00:11:59.365Z,3.31
2018-12-25T00:14:27.856Z,3.06
2018-12-25T00:16:56.352Z,3.30
2018-12-25T00:19:24.833Z,3.31
2018-12-25T00:21:53.318Z,3.18
2018-12-25T00:24:22.041Z,3.17
2018-12-25T00:26:50.528Z,2.95
2018-12-25T00:29:18.995Z,3.26
2018-12-25T00:31:47.476Z,3.16
2018-12-25T00:34:15.964Z,3.19
2018-12-25T00:36:44.441Z,3.06
2018-12-25T00:39:13.170Z,3.23
2018-12-25T00:41:41.651Z,3.10
2018-12-25T00:44:10.372Z,2.88
2018-12-25T00:46:38.855Z,3.12
2018-12-25T00:49:14.585Z,2.92
2018-12-25T00:51:37.550Z,2.67
2018-12-25T00:54:06.044Z,2.71
2018-12-25T00:56:53.856Z,2.79
2018-12-25T00:59:22.357Z,2.95
2018-12-25T01:01:50.833Z,2.73
2018-12-25T01:04:19.327Z,2.57
2018-12-25T01:06:47.808Z,2.61
2018-12-25T01:09:16.292Z,2.63
2018-12-25T01:11:44.768Z,2.49
2018-12-25T01:14:13.247Z,2.70
2018-12-25T01:16:41.732Z,2.71
2018-12-25T01:19:10.461Z,3.12
2018-12-25T01:21:38.969Z,2.67
2018-12-25T01:24:07.464Z,2.55
2018-12-25T01:26:35.944Z,2.52
2018-12-25T01:29:04.443Z,2.36
2018-12-25T01:31:32.923Z,2.39
2018-12-25T01:34:01.414Z,2.35
2018-12-25T01:36:29.896Z,2.46
2018-12-25T01:38:58.391Z,2.40
2018-12-25T01:41:26.878Z,2.63
2018-12-25T01:43:55.369Z,2.86
2018-12-25T01:46:23.856Z,2.59
2018-12-25T01:48:52.363Z,2.79
2018-12-25T01:51:20.851Z,2.85
2018-12-25T01:53:49.356Z,2.76
2018-12-25T01:56:17.834Z,2.94
2018-12-25T01:58:46.323Z,2.71
2018-12-25T02:01:14.815Z,2.70
2018-12-25T02:03:43.531Z,2.66
2018-12-25T02:06:12.017Z,2.66
2018-12-25T02:08:40.506Z,2.70
2018-12-25T02:11:09.021Z,2.59
2018-12-25T02:13:37.733Z,2.75
2018-12-25T02:16:06.219Z,2.81
2018-12-25T02:18:34.704Z,2.83
2018-12-25T02:21:03.214Z,3.26
2018-12-25T02:23:31.749Z,3.00
2018-12-25T02:26:00.242Z,2.75
2018-12-25T02:28:28.725Z,2.78
2018-12-25T02:30:57.207Z,2.74
2018-12-25T02:33:25.688Z,2.85
2018-12-25T02:35:54.179Z,2.82
2018-12-25T02:38:22.653Z,2.81
2018-12-25T02:40:51.157Z,2.82
2018-12-25T02:43:19.849Z,2.81
2018-12-25T02:45:48.349Z,2.89
2018-12-25T02:48:16.835Z,3.15
2018-12-25T02:50:45.317Z,3.04
2018-12-25T02:53:13.811Z,3.06
2018-12-25T02:55:42.304Z,2.93
2018-12-25T02:58:11.036Z,2.84
2018-12-25T03:00:39.585Z,3.05
2018-12-25T03:03:08.075Z,2.95
2018-12-25T03:05:36.560Z,2.91
2018-12-25T03:08:05.096Z,3.08
2018-12-25T03:10:33.552Z,3.17
2018-12-25T03:13:02.055Z,3.07
2018-12-25T03:15:30.538Z,2.99
2018-12-25T03:17:59.032Z,2.99
2018-12-25T03:20:27.516Z,2.93
2018-12-25T03:22:56.245Z,2.87
2018-12-25T03:25:44.113Z,2.90
2018-12-25T03:28:14.573Z,2.88
2018-12-25T03:30:43.108Z,3.19
2018-12-25T03:33:11.591Z,2.97
2018-12-25T03:35:40.073Z,2.89
2018-12-25T03:38:08.555Z,2.70
2018-12-25T03:40:37.036Z,2.80
2018-12-25T03:43:05.763Z,2.90
2018-12-25T03:45:34.243Z,2.92
2018-12-25T03:48:02.747Z,2.99
2018-12-25T03:50:31.463Z,2.97
2018-12-25T03:52:59.974Z,2.96
2018-12-25T03:55:28.473Z,3.07
2018-12-25T03:57:56.951Z,3.20
2018-12-25T04:00:25.485Z,3.11
2018-12-25T04:02:53.950Z,3.46
2018-12-25T04:05:22.431Z,3.23
2018-12-25T04:07:50.921Z,3.44
2018-12-25T04:10:19.409Z,3.36
2018-12-25T04:12:47.884Z,3.51
2018-12-25T04:15:16.616Z,3.36
2018-12-25T04:17:45.095Z,3.54
2018-12-25T04:20:19.742Z,3.39
2018-12-25T04:22:43.781Z,3.13
2018-12-25T04:25:12.284Z,3.12
2018-12-25T04:27:40.789Z,3.10
2018-12-25T04:30:09.270Z,3.15
2018-12-25T04:32:37.758Z,3.16
2018-12-25T04:35:06.235Z,3.19
2018-12-25T04:37:34.734Z,3.14
2018-12-25T04:40:03.278Z,3.28
2018-12-25T04:42:31.762Z,3.27
2018-12-25T04:45:00.249Z,3.24
2018-12-25T04:47:28.743Z,3.35
2018-12-25T04:49:57.225Z,3.30
2018-12-25T04:52:25.709Z,3.49
2018-12-25T04:54:54.214Z,3.47
2018-12-25T04:57:22.703Z,3.49
2018-12-25T04:59:51.191Z,3.61
2018-12-25T05:02:19.670Z,3.79
2018-12-25T05:04:48.166Z,3.52
2018-12-25T05:07:16.645Z,3.65
2018-12-25T05:09:45.125Z,3.60
2018-12-25T05:12:13.611Z,3.42
2018-12-25T05:14:42.104Z,3.37
2018-12-25T05:17:10.580Z,3.44
2018-12-25T05:19:39.089Z,3.43
2018-12-25T05:22:07.567Z,3.57
2018-12-25T05:24:36.061Z,3.63
2018-12-25T05:27:04.534Z,3.54
2018-12-25T05:29:33.027Z,3.47
2018-12-25T05:32:01.501Z,3.27
2018-12-25T05:34:29.985Z,3.14
2018-12-25T05:36:58.471Z,3.33
2018-12-25T05:39:26.953Z,3.30
2018-12-25T05:41:55.456Z,3.26
2018-12-25T05:44:23.931Z,3.37
2018-12-25T05:46:52.430Z,3.35
2018-12-25T05:49:20.915Z,3.51
2018-12-25T05:51:49.412Z,3.27
2018-12-25T05:54:37.232Z,3.47
2018-12-25T05:57:05.961Z,3.44
2018-12-25T05:59:34.449Z,3.52
2018-12-25T06:02:02.935Z,3.57
2018-12-25T06:04:31.406Z,3.43
2018-12-25T06:06:59.898Z,3.64
2018-12-25T06:09:28.625Z,3.59
2018-12-25T06:11:57.116Z,3.72
2018-12-25T06:14:25.601Z,3.35
2018-12-25T06:16:54.092Z,3.16
2018-12-25T06:19:22.653Z,3.30
2018-12-25T06:21:51.128Z,3.42
2018-12-25T06:24:19.625Z,3.35
2018-12-25T06:26:48.111Z,3.29
2018-12-25T06:29:16.605Z,3.45
2018-12-25T06:31:45.085Z,3.51
2018-12-25T06:34:13.572Z,3.42
2018-12-25T06:36:42.049Z,3.25
2018-12-25T06:39:10.539Z,3.48
2018-12-25T06:41:39.016Z,3.55
2018-12-25T06:44:07.488Z,3.55
2018-12-25T06:46:35.990Z,3.47
2018-12-25T06:49:04.473Z,3.55
2018-12-25T06:51:32.966Z,3.53
2018-12-25T06:54:01.452Z,3.59
2018-12-25T06:56:30.015Z,3.54
2018-12-25T06:59:00.150Z,3.51
2018-12-25T07:01:31.814Z,3.50
2018-12-25T07:04:00.300Z,3.59
2018-12-25T07:06:28.956Z,3.70
2018-12-25T07:08:57.360Z,3.57
2018-12-25T07:11:25.854Z,3.89
2018-12-25T07:13:57.421Z,3.85
2018-12-25T07:16:25.827Z,3.64
2018-12-25T07:18:55.244Z,3.75
2018-12-25T07:21:23.730Z,3.72
2018-12-25T07:23:52.218Z,3.71
2018-12-25T07:26:20.708Z,3.82
2018-12-25T07:28:49.206Z,3.40
2018-12-25T07:31:17.694Z,3.75
2018-12-25T07:33:49.380Z,3.63
2018-12-25T07:36:17.927Z,3.61
2018-12-25T07:38:49.324Z,3.75
2018-12-25T07:41:18.827Z,3.60
2018-12-25T07:43:47.305Z,3.66
2018-12-25T07:46:15.802Z,3.69
2018-12-25T07:48:44.270Z,3.78
2018-12-25T07:51:20.507Z,3.74
2018-12-25T07:53:42.972Z,3.68
2018-12-25T07:56:11.492Z,3.87
2018-12-25T07:58:39.980Z,3.79
2018-12-25T08:01:09.451Z,3.63
2018-12-25T08:03:38.879Z,3.50
2018-12-25T08:06:07.379Z,3.48
2018-12-25T08:08:35.880Z,3.67
2018-12-25T08:11:04.366Z,3.53
2018-12-25T08:13:32.868Z,3.52
2018-12-25T08:16:01.346Z,3.67
2018-12-25T08:18:29.908Z,3.55
2018-12-25T08:20:58.629Z,3.89
2018-12-25T08:23:27.114Z,3.78
2018-12-25T08:25:55.607Z,3.77
2018-12-25T08:28:24.104Z,3.66
2018-12-25T08:30:52.883Z,3.84
2018-12-25T08:33:21.376Z,3.81
2018-12-25T08:35:52.456Z,3.84
2018-12-25T08:38:20.944Z,4.01
2018-12-25T08:40:49.415Z,3.65
2018-12-25T08:43:17.899Z,3.80
2018-12-25T08:45:46.384Z,3.82
2018-12-25T08:48:14.868Z,3.77
2018-12-25T08:50:43.355Z,3.86
2018-12-25T08:53:11.828Z,4.05
2018-12-25T08:55:40.317Z,3.86
2018-12-25T08:58:08.788Z,3.93
2018-12-25T09:00:38.227Z,3.96
2018-12-25T09:03:06.703Z,4.13
2018-12-25T09:05:35.195Z,4.32
2018-12-25T09:08:03.671Z,4.29
2018-12-25T09:10:32.199Z,4.26
2018-12-25T09:13:00.909Z,4.22
2018-12-25T09:15:29.691Z,4.21
2018-12-25T09:17:58.174Z,4.52
2018-12-25T09:20:26.657Z,4.50
2018-12-25T09:22:56.120Z,4.43
2018-12-25T09:25:24.604Z,4.23
2018-12-25T09:27:53.114Z,4.45
2018-12-25T09:30:21.609Z,4.61
2018-12-25T09:32:50.101Z,4.73
2018-12-25T09:35:18.593Z,4.61
2018-12-25T09:37:47.068Z,4.59
2018-12-25T09:40:15.547Z,4.59
2018-12-25T09:42:44.046Z,4.75
2018-12-25T09:45:12.557Z,4.51
2018-12-25T09:47:42.032Z,4.67
2018-12-25T09:50:10.520Z,4.67
2018-12-25T09:53:23.679Z,4.96
2018-12-25T09:55:52.065Z,4.92
2018-12-25T09:58:20.466Z,5.09
2018-12-25T10:00:48.854Z,5.38
2018-12-25T10:03:17.227Z,5.13
2018-12-25T10:05:45.611Z,4.98
2018-12-25T10:08:13.987Z,4.81
2018-12-25T10:10:45.044Z,4.77
2018-12-25T10:13:19.511Z,4.91
2018-12-25T10:15:47.897Z,4.87
2018-12-25T10:18:16.303Z,4.90
2018-12-25T10:20:44.688Z,4.89
2018-12-25T10:23:14.021Z,5.25
2018-12-25T10:25:42.648Z,5.20
2018-12-25T10:28:11.020Z,5.37
2018-12-25T10:30:42.436Z,5.44
2018-12-25T10:33:10.834Z,5.37
2018-12-25T10:35:39.203Z,5.48
2018-12-25T10:38:07.648Z,5.46
2018-12-25T10:40:36.284Z,5.45
2018-12-25T10:43:04.681Z,5.21
2018-12-25T10:45:33.062Z,5.39
2018-12-25T10:48:01.515Z,5.28
2018-12-25T10:50:29.847Z,5.30
2018-12-25T10:53:02.317Z,5.40
2018-12-25T10:55:30.756Z,5.48
2018-12-25T10:58:00.097Z,5.72
2018-12-25T11:00:39.352Z,5.60
2018-12-25T11:03:07.729Z,5.24
2018-12-25T11:05:37.192Z,5.19
2018-12-25T11:08:08.495Z,5.16
2018-12-25T11:10:36.891Z,5.57
2018-12-25T11:13:05.255Z,5.32
2018-12-25T11:15:33.842Z,5.50
2018-12-25T11:18:02.210Z,5.66
2018-12-25T11:20:30.859Z,5.72
2018-12-25T11:22:59.228Z,5.74
2018-12-25T11:25:29.941Z,5.61
2018-12-25T11:27:58.317Z,5.80
2018-12-25T11:30:26.711Z,5.92
2018-12-25T11:32:55.100Z,9.51
2018-12-25T11:35:23.505Z,11.89
2018-12-25T11:37:51.880Z,8.49
2018-12-25T11:40:20.271Z,7.65
2018-12-25T11:42:49.578Z,7.32
2018-12-25T11:45:17.990Z,7.21
2018-12-25T11:47:51.026Z,7.08
2018-12-25T11:50:19.666Z,6.87
2018-12-25T11:52:49.997Z,7.00
2018-12-25T11:55:18.369Z,7.09
2018-12-25T11:57:46.754Z,7.22
2018-12-25T12:00:15.131Z,7.15
2018-12-25T12:02:52.819Z,7.03
2018-12-25T12:05:21.190Z,6.78
2018-12-25T12:07:49.581Z,7.01
2018-12-25T12:10:17.959Z,7.30
2018-12-25T12:12:46.335Z,7.24
2018-12-25T12:15:14.713Z,7.15
2018-12-25T12:17:43.101Z,7.55
2018-12-25T12:20:11.543Z,7.25
2018-12-25T12:22:39.979Z,7.51
2018-12-25T12:25:11.637Z,7.51
2018-12-25T12:27:39.931Z,7.73
2018-12-25T12:30:08.384Z,7.68
2018-12-25T12:32:36.764Z,7.60
2018-12-25T12:35:05.487Z,7.87
2018-12-25T12:37:33.861Z,7.99
2018-12-25T12:40:02.271Z,8.06
2018-12-25T12:42:30.647Z,8.03
2018-12-25T12:44:59.028Z,8.12
2018-12-25T12:47:27.401Z,8.30
2018-12-25T12:49:55.839Z,8.25
2018-12-25T12:52:26.103Z,8.59
2018-12-25T12:54:57.666Z,8.50
2018-12-25T12:57:26.058Z,8.32
2018-12-25T12:59:54.441Z,8.37
2018-12-25T13:02:22.861Z,8.36
2018-12-25T13:04:51.502Z,8.53
2018-12-25T13:07:19.888Z,8.56
2018-12-25T13:09:48.266Z,8.38
2018-12-25T13:12:16.657Z,8.52
2018-12-25T13:14:45.053Z,8.61
2018-12-25T13:17:15.432Z,8.62
2018-12-25T13:19:47.791Z,8.82
2018-12-25T13:22:16.175Z,8.75
2018-12-25T13:24:44.558Z,8.70
2018-12-25T13:27:12.938Z,8.65
2018-12-25T13:29:41.311Z,8.71
2018-12-25T13:32:09.694Z,8.46
2018-12-25T13:34:38.978Z,8.18
2018-12-25T13:37:07.349Z,8.42
2018-12-25T13:39:35.734Z,8.41
2018-12-25T13:42:05.065Z,8.55
2018-12-25T13:44:33.441Z,8.48
2018-12-25T13:47:01.821Z,8.35
2018-12-25T13:49:30.206Z,8.44
2018-12-25T13:51:58.583Z,8.27
2018-12-25T13:54:26.952Z,8.20
2018-12-25T13:56:55.421Z,8.09
2018-12-25T13:59:23.771Z,8.15
2018-12-25T14:01:52.133Z,8.05
2018-12-25T14:04:20.516Z,7.88
2018-12-25T14:06:48.889Z,7.81
2018-12-25T14:09:17.272Z,7.86
2018-12-25T14:11:45.644Z,7.92
2018-12-25T14:14:14.020Z,8.02
2018-12-25T14:16:42.400Z,7.94
2018-12-25T14:19:11.097Z,7.87
2018-12-25T14:21:39.477Z,8.05
2018-12-25T14:24:07.845Z,7.88
2018-12-25T14:26:36.213Z,7.86
2018-12-25T14:29:04.582Z,7.94
2018-12-25T14:31:32.956Z,7.94
2018-12-25T14:34:01.321Z,8.03
2018-12-25T14:36:30.039Z,7.96
2018-12-25T14:38:58.411Z,7.92
2018-12-25T14:41:26.789Z,7.96
2018-12-25T14:43:55.153Z,7.96
2018-12-25T14:46:23.549Z,8.05
2018-12-25T14:48:51.914Z,8.10
2018-12-25T14:51:20.359Z,8.05
2018-12-25T14:53:48.742Z,7.71
2018-12-25T14:56:17.123Z,7.86
2018-12-25T14:58:45.513Z,7.82
2018-12-25T15:01:13.897Z,7.88
2018-12-25T15:03:42.295Z,7.98
2018-12-25T15:06:10.710Z,7.91
2018-12-25T15:08:39.084Z,7.88
2018-12-25T15:11:07.449Z,7.90
2018-12-25T15:13:36.065Z,7.95
2018-12-25T15:16:04.455Z,7.77
2018-12-25T15:18:32.834Z,7.60
2018-12-25T15:21:01.212Z,7.56
2018-12-25T15:23:29.611Z,7.77
2018-12-25T15:25:58.028Z,7.55
2018-12-25T15:28:26.710Z,7.77
2018-12-25T15:30:55.074Z,7.74
2018-12-25T15:33:23.478Z,7.74
2018-12-25T15:35:51.843Z,7.81
2018-12-25T15:38:20.216Z,7.63
2018-12-25T15:40:48.588Z,7.90
2018-12-25T15:43:16.961Z,7.90
2018-12-25T15:45:45.463Z,8.03
2018-12-25T15:48:13.832Z,7.90
2018-12-25T15:50:42.221Z,7.74
2018-12-25T15:53:10.590Z,7.92
2018-12-25T15:55:38.974Z,7.94
2018-12-25T15:58:07.716Z,7.82
2018-12-25T16:00:36.096Z,7.82
2018-12-25T16:03:04.468Z,7.83
2018-12-25T16:05:33.785Z,7.69
2018-12-25T16:08:02.155Z,7.44
2018-12-25T16:10:30.560Z,7.43
2018-12-25T16:12:58.936Z,7.61
2018-12-25T16:15:27.307Z,7.80
2018-12-25T16:17:55.697Z,7.57
2018-12-25T16:20:24.384Z,7.45
2018-12-25T16:22:52.768Z,7.33
2018-12-25T16:25:21.143Z,7.44
2018-12-25T16:27:49.525Z,7.57
2018-12-25T16:30:17.899Z,7.50
2018-12-25T16:32:46.279Z,7.48
2018-12-25T16:35:14.659Z,7.40
2018-12-25T16:37:43.344Z,7.33
2018-12-25T16:40:11.715Z,7.32
2018-12-25T16:42:40.106Z,7.25
2018-12-25T16:45:08.499Z,7.21
2018-12-25T16:47:36.946Z,7.42
2018-12-25T16:50:05.696Z,7.13
2018-12-25T16:52:34.068Z,7.08
2018-12-25T16:55:02.449Z,7.03
2018-12-25T16:57:30.817Z,7.10
2018-12-25T16:59:59.471Z,6.96
2018-12-25T17:02:27.854Z,6.73
2018-12-25T17:04:56.235Z,6.83
2018-12-25T17:07:24.614Z,6.92
2018-12-25T17:09:53.087Z,6.80
2018-12-25T17:12:21.497Z,6.82
2018-12-25T17:14:49.886Z,6.84
2018-12-25T17:17:18.320Z,6.88
2018-12-25T17:19:46.716Z,6.76
2018-12-25T17:22:15.157Z,6.80
2018-12-25T17:24:43.538Z,6.79
2018-12-25T17:27:12.856Z,6.68
2018-12-25T17:29:41.244Z,6.30
2018-12-25T17:32:09.622Z,6.66
2018-12-25T17:34:38.020Z,6.72
2018-12-25T17:37:06.410Z,6.74
2018-12-25T17:39:34.777Z,6.65
2018-12-25T17:42:03.178Z,6.70
2018-12-25T17:44:31.542Z,6.43
2018-12-25T17:46:59.928Z,6.20
2018-12-25T17:49:28.305Z,6.51
2018-12-25T17:51:56.686Z,6.39
2018-12-25T17:54:25.057Z,6.61
2018-12-25T17:56:53.513Z,6.35
2018-12-25T17:59:21.846Z,6.05
2018-12-25T18:01:50.224Z,6.10
2018-12-25T18:04:18.629Z,6.07
2018-12-25T18:06:46.978Z,6.37
2018-12-25T18:09:15.367Z,6.07
2018-12-25T18:11:43.770Z,6.21
2018-12-25T18:14:12.149Z,6.01
2018-12-25T18:16:40.530Z,6.24
2018-12-25T18:19:08.908Z,6.28
2018-12-25T18:21:37.297Z,5.96
2018-12-25T18:24:05.677Z,6.38
2018-12-25T18:26:34.096Z,6.14
2018-12-25T18:29:02.479Z,6.27
2018-12-25T18:31:30.868Z,6.16
2018-12-25T18:33:59.249Z,5.72
2018-12-25T18:36:27.621Z,6.00
2018-12-25T18:38:56.082Z,5.81
2018-12-25T18:41:24.460Z,5.85
2018-12-25T18:43:52.853Z,6.03
2018-12-25T18:46:21.221Z,5.67
2018-12-25T18:48:50.629Z,6.09
2018-12-25T18:51:19.016Z,5.80
2018-12-25T18:53:47.400Z,5.91
2018-12-25T18:56:16.017Z,5.73
2018-12-25T18:58:44.421Z,5.62
2018-12-25T19:01:12.776Z,5.97
2018-12-25T19:03:41.164Z,5.75
2018-12-25T19:06:09.547Z,5.60
2018-12-25T19:08:37.952Z,5.60
2018-12-25T19:11:06.330Z,5.61
2018-12-25T19:13:34.714Z,5.81
2018-12-25T19:16:03.634Z,5.48
2018-12-25T19:18:32.016Z,5.31
2018-12-25T19:21:00.386Z,5.48
2018-12-25T19:23:28.778Z,5.17
2018-12-25T19:25:57.151Z,5.43
2018-12-25T19:28:25.523Z,5.09
2018-12-25T19:30:53.933Z,5.32
2018-12-25T19:33:22.316Z,5.13
2018-12-25T19:35:50.694Z,5.22
2018-12-25T19:38:19.069Z,4.91
2018-12-25T19:40:56.360Z,4.88
2018-12-25T19:43:24.729Z,4.99
2018-12-25T19:45:53.356Z,5.10
2018-12-25T19:48:24.834Z,4.71
2018-12-25T19:50:53.222Z,4.75
2018-12-25T19:53:23.575Z,4.85
2018-12-25T19:55:52.035Z,4.80
2018-12-25T19:58:20.424Z,4.70
2018-12-25T20:00:48.833Z,4.69
2018-12-25T20:03:17.280Z,4.74
2018-12-25T20:05:48.723Z,4.53
2018-12-25T20:08:41.090Z,4.38
2018-12-25T20:11:27.421Z,4.31
2018-12-25T20:13:58.853Z,4.01
2018-12-25T20:16:44.667Z,4.60
2018-12-25T20:19:18.744Z,4.36
2018-12-25T20:22:05.011Z,4.30
2018-12-25T20:24:55.766Z,3.78
2018-12-25T20:27:43.590Z,3.91
2018-12-25T20:30:28.331Z,3.87
2018-12-25T20:33:14.553Z,3.93
2018-12-25T20:35:50.619Z,3.93
2018-12-25T20:38:44.689Z,4.12
2018-12-25T20:41:35.418Z,4.14
2018-12-25T20:44:15.055Z,3.94
2018-12-25T20:47:04.449Z,4.18
2018-12-25T20:49:54.083Z,4.04
2018-12-25T20:52:34.309Z,4.18
2018-12-25T20:55:25.456Z,3.84
2018-12-25T20:58:23.975Z,3.85
2018-12-25T21:01:17.286Z,3.87
2018-12-25T21:04:05.412Z,3.82
2018-12-25T21:07:10.311Z,4.05
2018-12-25T21:09:50.556Z,3.89
2018-12-25T21:12:45.435Z,4.01
2018-12-25T21:15:40.941Z,4.12
2018-12-25T21:18:36.565Z,3.76
2018-12-25T21:21:22.992Z,3.53
2018-12-25T21:24:27.738Z,3.84
2018-12-25T21:27:28.869Z,3.86
2018-12-25T21:29:57.700Z,3.83
2018-12-25T21:32:26.567Z,3.47
2018-12-25T21:35:10.050Z,3.75
2018-12-25T21:37:38.596Z,3.80
2018-12-25T21:40:07.557Z,3.72
2018-12-25T21:42:36.535Z,3.79
2018-12-25T21:45:06.446Z,3.59
2018-12-25T21:47:34.976Z,3.70
2018-12-25T21:50:09.397Z,3.52
2018-12-25T21:52:47.083Z,3.59
2018-12-25T21:55:18.948Z,3.58
2018-12-25T21:57:46.608Z,3.11
2018-12-25T22:00:15.008Z,3.42
2018-12-25T22:02:43.619Z,3.71
2018-12-25T22:05:17.744Z,3.65
2018-12-25T22:07:46.127Z,3.31
2018-12-25T22:10:14.524Z,3.38
2018-12-25T22:12:42.900Z,3.27
2018-12-25T22:15:11.562Z,3.47
2018-12-25T22:17:39.953Z,3.45
2018-12-25T22:20:11.376Z,3.44
2018-12-25T22:22:39.759Z,3.56
2018-12-25T22:25:08.132Z,3.39
2018-12-25T22:27:36.521Z,3.16
2018-12-25T22:30:06.343Z,3.13
2018-12-25T22:32:34.732Z,3.31
2018-12-25T22:35:03.403Z,3.31
2018-12-25T22:37:31.820Z,3.01
2018-12-25T22:40:00.203Z,3.12
2018-12-25T22:42:28.575Z,3.23
2018-12-25T22:45:01.202Z,3.17
2018-12-25T22:47:29.587Z,3.00
2018-12-25T22:49:57.963Z,3.25
2018-12-25T22:52:26.331Z,3.15
2018-12-25T22:54:54.714Z,2.94
2018-12-25T22:57:23.176Z,2.62
2018-12-25T22:59:51.555Z,2.84
2018-12-25T23:02:21.890Z,2.71
2018-12-25T23:04:50.269Z,2.62
2018-12-25T23:07:18.645Z,2.64
2018-12-25T23:09:47.070Z,2.63
2018-12-25T23:12:15.442Z,2.82
2018-12-25T23:14:43.826Z,2.84
2018-12-25T23:17:12.374Z,2.78
2018-12-25T23:19:41.393Z,2.75
2018-12-25T23:22:10.885Z,2.71
2018-12-25T23:24:39.258Z,2.70
2018-12-25T23:27:07.630Z,2.35
2018-12-25T23:29:36.008Z,2.11
2018-12-25T23:32:04.403Z,2.16
2018-12-25T23:34:32.784Z,2.17
2018-12-25T23:37:01.168Z,2.31
2018-12-25T23:39:29.592Z,2.32
2018-12-25T23:41:59.469Z,2.27
2018-12-25T23:44:27.979Z,2.45
2018-12-25T23:46:56.363Z,2.31
2018-12-25T23:49:24.766Z,2.25
2018-12-25T23:51:53.151Z,2.19
2018-12-25T23:54:21.533Z,2.32
2018-12-25T23:56:49.943Z,2.20
2018-12-25T23:59:18.625Z,2.43
